Time;durP1;ratioP1;P1;durP2;ratioP2;P2;SDS_P1;SDS_P2;PMS_P1;PMS_P2;Temp;Humidity;BMP_temperature;BMP_pressure;BME280_temperature;BME280_humidity;BME280_pressure;Samples;Min_cycle;Max_cycle;Signal;HPM_P1;HPM_P2
2024/01/24 00:01:26;;;;;;;4.43;1.10;;;12.90;99.90;;;;;;5036963;28;20115;-58
2024/01/24 00:03:52;;;;;;;5.75;1.88;;;13.00;99.90;;;;;;5035390;28;20414;-58
2024/01/24 00:06:19;;;;;;;5.53;2.08;;;12.90;99.90;;;;;;5035345;28;20046;-58
2024/01/24 00:08:48;;;;;;;5.82;2.00;;;13.00;99.90;;;;;;5036542;28;20160;-58
2024/01/24 00:11:15;;;;;;;5.97;2.50;;;13.00;99.90;;;;;;5036391;28;20041;-58
2024/01/24 00:13:42;;;;;;;7.05;2.10;;;13.10;99.90;;;;;;5036120;28;20092;-58
2024/01/24 00:16:08;;;;;;;8.48;2.58;;;13.10;99.90;;;;;;5036595;28;20046;-57
2024/01/24 00:18:35;;;;;;;6.97;1.80;;;13.10;99.90;;;;;;5036287;28;20125;-58
2024/01/24 00:21:02;;;;;;;6.22;1.63;;;13.10;99.90;;;;;;5036311;28;20046;-58
2024/01/24 00:23:29;;;;;;;5.93;1.52;;;13.10;99.90;;;;;;5036430;28;20044;-58
2024/01/24 00:25:55;;;;;;;6.80;1.27;;;13.20;99.90;;;;;;5036375;28;20046;-58
2024/01/24 00:28:26;;;;;;;6.88;1.50;;;13.10;99.90;;;;;;5036310;28;20045;-58
2024/01/24 00:30:53;;;;;;;7.78;2.08;;;13.20;99.90;;;;;;5036436;28;20474;-58
2024/01/24 00:33:20;;;;;;;9.35;2.55;;;13.10;99.90;;;;;;5036140;28;20117;-57
2024/01/24 00:35:46;;;;;;;11.25;2.60;;;13.10;99.90;;;;;;5036106;28;20046;-59
2024/01/24 00:38:13;;;;;;;10.45;2.38;;;13.20;99.90;;;;;;5036129;28;20430;-59
2024/01/24 00:40:40;;;;;;;17.67;3.10;;;13.10;99.90;;;;;;5036126;28;20474;-59
2024/01/24 00:43:07;;;;;;;11.32;2.83;;;13.00;99.90;;;;;;5036304;28;20049;-58
2024/01/24 00:45:33;;;;;;;14.30;2.75;;;13.00;99.90;;;;;;5035701;28;20041;-58
2024/01/24 00:48:00;;;;;;;15.18;3.25;;;13.00;99.90;;;;;;5035785;28;20044;-58
2024/01/24 00:50:28;;;;;;;16.23;3.13;;;12.90;99.90;;;;;;5035818;28;20449;-59
2024/01/24 00:52:55;;;;;;;14.00;3.30;;;13.00;99.90;;;;;;5035712;28;20045;-58
2024/01/24 00:55:22;;;;;;;16.85;3.53;;;13.00;99.90;;;;;;5035726;28;20418;-58
2024/01/24 00:57:49;;;;;;;13.50;3.33;;;13.00;99.90;;;;;;5035836;28;20041;-59
2024/01/24 01:00:16;;;;;;;12.55;2.80;;;13.00;99.90;;;;;;5035651;28;20041;-65
2024/01/24 01:02:43;;;;;;;13.75;3.40;;;12.90;99.90;;;;;;5035298;28;20467;-65
2024/01/24 01:05:09;;;;;;;16.50;3.47;;;12.90;99.90;;;;;;5035421;28;20069;-65
2024/01/24 01:07:36;;;;;;;18.90;4.00;;;12.90;99.90;;;;;;5033853;28;20081;-65
2024/01/24 01:10:03;;;;;;;13.75;3.53;;;12.90;99.90;;;;;;5035560;28;20068;-65
2024/01/24 01:12:30;;;;;;;20.98;4.80;;;12.90;99.90;;;;;;5035456;28;20038;-66
2024/01/24 01:14:57;;;;;;;14.98;3.80;;;12.90;99.90;;;;;;5035116;28;20510;-65
2024/01/24 01:17:24;;;;;;;17.33;3.75;;;12.90;99.90;;;;;;5035343;28;20041;-65
2024/01/24 01:19:51;;;;;;;18.17;4.75;;;12.90;99.90;;;;;;5035372;28;20537;-59
2024/01/24 01:22:17;;;;;;;18.08;4.70;;;12.90;99.90;;;;;;5035155;28;20163;-65
2024/01/24 01:24:44;;;;;;;20.02;3.92;;;12.80;99.90;;;;;;5035058;28;20214;-65
2024/01/24 01:27:11;;;;;;;21.33;5.07;;;12.80;99.90;;;;;;5034976;28;20116;-65
2024/01/24 01:29:38;;;;;;;22.08;4.43;;;12.80;99.90;;;;;;5034930;28;20053;-65
2024/01/24 01:32:05;;;;;;;22.77;4.80;;;12.80;99.90;;;;;;5034758;28;20037;-65
2024/01/24 01:34:32;;;;;;;24.08;5.40;;;12.80;99.90;;;;;;5034916;28;20411;-65
2024/01/24 01:36:59;;;;;;;23.90;4.20;;;12.80;99.90;;;;;;5017250;28;20042;-66
2024/01/24 01:39:28;;;;;;;23.23;5.20;;;12.70;99.90;;;;;;5034847;28;20380;-65
2024/01/24 01:41:55;;;;;;;21.15;4.43;;;12.80;99.90;;;;;;5034664;28;20045;-65
2024/01/24 01:44:22;;;;;;;26.15;5.43;;;12.70;99.90;;;;;;5034662;28;20077;-65
2024/01/24 01:46:51;;;;;;;25.48;5.85;;;12.70;99.90;;;;;;5034587;28;20056;-64
2024/01/24 01:49:18;;;;;;;30.75;6.30;;;12.70;99.90;;;;;;5033393;28;20037;-64
2024/01/24 01:51:45;;;;;;;27.90;6.63;;;12.70;99.90;;;;;;5034690;28;20454;-64
2024/01/24 01:54:12;;;;;;;26.77;5.85;;;12.70;99.90;;;;;;5034562;28;20060;-64
2024/01/24 01:56:39;;;;;;;29.58;6.18;;;12.60;99.90;;;;;;5034697;28;20072;-59
2024/01/24 01:59:06;;;;;;;29.25;6.47;;;12.60;99.90;;;;;;5034251;28;20049;-58
2024/01/24 02:01:33;;;;;;;27.67;6.47;;;12.60;99.90;;;;;;5034460;28;20069;-58
2024/01/24 02:04:00;;;;;;;27.52;5.80;;;12.60;99.90;;;;;;5032999;28;20487;-58
2024/01/24 02:06:30;;;;;;;29.45;6.28;;;12.60;99.90;;;;;;5034431;28;20099;-59
2024/01/24 02:08:57;;;;;;;27.95;5.90;;;12.60;99.90;;;;;;5034210;28;20045;-59
2024/01/24 02:11:24;;;;;;;29.02;6.47;;;12.50;99.90;;;;;;5034145;28;20418;-58
2024/01/24 02:13:51;;;;;;;38.33;7.40;;;12.50;99.90;;;;;;5033734;28;20462;-59
2024/01/24 02:16:18;;;;;;;31.55;7.25;;;12.50;99.90;;;;;;5034404;28;20471;-58
2024/01/24 02:18:47;;;;;;;32.45;6.65;;;12.50;99.90;;;;;;5033824;28;20059;-59
2024/01/24 02:21:14;;;;;;;32.33;6.40;;;12.50;99.90;;;;;;5034177;28;20049;-65
2024/01/24 02:23:41;;;;;;;28.55;6.43;;;12.50;99.90;;;;;;5033972;28;20049;-65
2024/01/24 02:26:09;;;;;;;31.85;6.00;;;12.50;99.90;;;;;;5034070;28;20045;-59
2024/01/24 02:28:35;;;;;;;39.05;6.82;;;12.50;99.90;;;;;;5033952;28;20482;-64
2024/01/24 02:31:02;;;;;;;26.92;6.60;;;12.50;99.90;;;;;;5033696;28;20048;-59
2024/01/24 02:33:29;;;;;;;37.20;6.65;;;12.50;99.90;;;;;;5033963;28;20068;-59
2024/01/24 02:35:56;;;;;;;30.38;6.95;;;12.40;99.90;;;;;;5034036;28;20421;-65
2024/01/24 02:38:23;;;;;;;32.60;7.35;;;12.30;99.90;;;;;;5033916;28;20120;-65
2024/01/24 02:40:50;;;;;;;28.52;6.05;;;12.30;99.90;;;;;;5033785;28;20041;-65
2024/01/24 02:43:17;;;;;;;35.58;7.28;;;12.20;99.90;;;;;;5033695;28;20529;-65
2024/01/24 02:45:44;;;;;;;33.55;7.15;;;12.20;99.90;;;;;;5033705;28;20038;-65
2024/01/24 02:48:10;;;;;;;29.88;7.30;;;12.20;99.90;;;;;;5033645;28;20060;-65
2024/01/24 02:50:37;;;;;;;35.83;7.25;;;12.10;99.90;;;;;;5032311;28;20053;-65
2024/01/24 02:53:04;;;;;;;35.78;6.57;;;12.10;99.90;;;;;;5033643;28;20527;-65
2024/01/24 02:55:31;;;;;;;32.65;6.55;;;12.10;99.90;;;;;;5033321;28;20041;-65
2024/01/24 02:57:58;;;;;;;35.90;7.50;;;12.20;99.90;;;;;;5032197;28;20487;-65
2024/01/24 03:00:26;;;;;;;40.42;7.45;;;12.10;99.90;;;;;;5033222;28;20397;-65
2024/01/24 03:02:53;;;;;;;35.00;7.55;;;12.10;99.90;;;;;;5033275;28;20041;-65
2024/01/24 03:05:20;;;;;;;33.08;7.43;;;12.10;99.90;;;;;;5033334;28;20099;-65
2024/01/24 03:07:46;;;;;;;38.95;7.95;;;12.00;99.90;;;;;;5033479;28;20079;-65
2024/01/24 03:10:13;;;;;;;32.70;6.47;;;12.00;99.90;;;;;;5033112;28;20084;-65
2024/01/24 03:12:40;;;;;;;34.08;6.55;;;11.90;99.90;;;;;;5032311;28;20041;-65
2024/01/24 03:15:07;;;;;;;32.05;7.43;;;11.90;99.90;;;;;;5033173;28;20117;-66
2024/01/24 03:17:34;;;;;;;27.80;6.95;;;11.90;99.90;;;;;;5033574;28;20471;-65
2024/01/24 03:20:01;;;;;;;40.40;7.43;;;11.80;99.90;;;;;;5033132;28;20046;-65
2024/01/24 03:22:27;;;;;;;31.88;7.10;;;11.80;99.90;;;;;;5033184;28;20428;-66
2024/01/24 03:24:54;;;;;;;32.83;7.40;;;11.80;99.90;;;;;;5033289;28;20091;-66
2024/01/24 03:27:21;;;;;;;36.53;7.32;;;11.70;99.90;;;;;;5032998;28;20041;-66
2024/01/24 03:29:49;;;;;;;32.38;6.57;;;11.70;99.90;;;;;;5033981;28;20514;-66
2024/01/24 03:32:15;;;;;;;32.97;7.88;;;11.70;99.90;;;;;;5037116;28;20132;-66
2024/01/24 03:34:42;;;;;;;32.65;6.65;;;11.70;99.90;;;;;;5037135;28;20068;-66
2024/01/24 03:37:09;;;;;;;36.75;7.65;;;11.70;99.90;;;;;;5036891;28;20053;-66
2024/01/24 03:39:36;;;;;;;33.45;7.05;;;11.60;99.90;;;;;;5037064;28;20107;-66
2024/01/24 03:42:03;;;;;;;34.63;7.40;;;11.60;99.90;;;;;;5037045;28;20050;-66
2024/01/24 03:44:30;;;;;;;30.65;7.93;;;11.60;99.90;;;;;;5036759;28;20050;-66
2024/01/24 03:46:57;;;;;;;32.70;8.35;;;11.60;99.90;;;;;;5036905;28;20068;-60
2024/01/24 03:49:24;;;;;;;38.47;7.68;;;11.60;99.90;;;;;;5036704;28;20049;-59
2024/01/24 03:51:51;;;;;;;30.63;7.85;;;11.50;99.90;;;;;;5036795;28;20034;-59
2024/01/24 03:54:17;;;;;;;42.05;7.68;;;11.50;99.90;;;;;;5036606;28;20041;-66
2024/01/24 03:56:45;;;;;;;43.40;8.13;;;11.50;99.90;;;;;;5036442;28;20080;-66
2024/01/24 03:59:11;;;;;;;34.42;7.57;;;11.40;99.90;;;;;;5036424;28;20050;-65
2024/01/24 04:01:38;;;;;;;38.30;8.07;;;11.50;99.90;;;;;;5036401;28;20052;-60
2024/01/24 04:04:05;;;;;;;39.92;7.63;;;11.50;99.90;;;;;;5036550;28;20050;-59
2024/01/24 04:06:32;;;;;;;36.67;7.97;;;11.50;99.90;;;;;;5036201;28;20048;-57
2024/01/24 04:08:59;;;;;;;39.50;8.35;;;11.50;99.90;;;;;;5036595;28;20398;-58
2024/01/24 04:11:26;;;;;;;32.22;6.80;;;11.40;99.90;;;;;;5036615;28;20051;-58
2024/01/24 04:13:56;;;;;;;36.30;8.10;;;11.40;99.90;;;;;;5036105;28;20049;-58
2024/01/24 04:16:23;;;;;;;34.10;7.32;;;11.40;99.90;;;;;;5036503;28;20361;-57
2024/01/24 04:18:52;;;;;;;42.25;8.40;;;11.40;99.90;;;;;;5036367;28;20077;-57
2024/01/24 04:21:19;;;;;;;39.92;8.18;;;11.40;99.90;;;;;;5036367;28;20921;-57
2024/01/24 04:23:46;;;;;;;37.83;7.38;;;11.40;99.90;;;;;;5036198;28;20077;-56
2024/01/24 04:26:13;;;;;;;30.75;7.18;;;11.30;99.90;;;;;;5036199;28;20052;-57
2024/01/24 04:28:40;;;;;;;39.53;8.70;;;11.30;99.90;;;;;;5035982;28;20446;-58
2024/01/24 04:31:07;;;;;;;38.60;7.68;;;11.30;99.90;;;;;;5036111;28;20038;-58
2024/01/24 04:33:33;;;;;;;40.47;7.88;;;11.30;99.90;;;;;;5036088;28;20034;-59
2024/01/24 04:36:01;;;;;;;33.92;7.88;;;11.30;99.90;;;;;;5036213;28;20482;-59
2024/01/24 04:38:28;;;;;;;35.75;8.43;;;11.30;99.90;;;;;;5036104;28;20037;-58
2024/01/24 04:40:55;;;;;;;38.60;8.35;;;11.30;99.90;;;;;;5035582;28;20566;-58
2024/01/24 04:43:21;;;;;;;42.40;8.15;;;11.30;99.90;;;;;;5035669;28;20045;-58
2024/01/24 04:45:48;;;;;;;33.97;8.25;;;11.30;99.90;;;;;;5036189;28;20084;-59
2024/01/24 04:48:15;;;;;;;37.10;7.18;;;11.30;99.90;;;;;;5035636;28;20471;-59
2024/01/24 04:50:42;;;;;;;38.58;7.47;;;11.30;99.90;;;;;;5035541;28;20038;-58
2024/01/24 04:53:09;;;;;;;36.65;8.32;;;11.30;99.90;;;;;;5035748;28;20037;-59
2024/01/24 04:55:36;;;;;;;38.80;8.35;;;11.30;99.90;;;;;;5035159;28;20038;-59
2024/01/24 04:58:04;;;;;;;34.60;7.38;;;11.30;99.90;;;;;;5035294;28;20041;-59
2024/01/24 05:00:31;;;;;;;37.80;7.70;;;11.20;99.90;;;;;;5034995;28;20045;-59
2024/01/24 05:02:58;;;;;;;36.88;7.22;;;11.20;99.90;;;;;;5035449;28;20045;-59
2024/01/24 05:05:25;;;;;;;36.70;7.88;;;11.20;99.90;;;;;;5035010;28;20116;-59
2024/01/24 05:07:52;;;;;;;29.48;7.30;;;11.10;99.90;;;;;;5034916;28;20065;-59
2024/01/24 05:10:18;;;;;;;38.63;8.05;;;11.10;99.90;;;;;;5034878;28;20048;-59
2024/01/24 05:12:45;;;;;;;33.42;7.20;;;11.10;99.90;;;;;;5034744;28;20041;-58
2024/01/24 05:15:12;;;;;;;36.33;7.55;;;11.10;99.90;;;;;;5035303;28;20042;-58
2024/01/24 05:17:39;;;;;;;36.05;7.20;;;11.10;99.90;;;;;;5035313;28;20099;-58
2024/01/24 05:20:07;;;;;;;34.90;7.38;;;11.10;99.90;;;;;;5033937;28;20045;-59
2024/01/24 05:22:34;;;;;;;36.92;7.45;;;11.10;99.90;;;;;;5034919;28;20045;-58
2024/01/24 05:25:00;;;;;;;41.65;8.45;;;11.10;99.90;;;;;;5034779;28;20084;-59
2024/01/24 05:27:27;;;;;;;31.88;8.23;;;11.10;99.90;;;;;;5034935;28;20112;-58
2024/01/24 05:29:54;;;;;;;36.30;8.07;;;11.10;99.90;;;;;;5034605;28;20133;-57
2024/01/24 05:32:21;;;;;;;33.22;7.20;;;11.10;99.90;;;;;;5035075;28;20131;-60
2024/01/24 05:34:49;;;;;;;34.78;7.72;;;11.00;99.90;;;;;;5034919;28;20065;-60
2024/01/24 05:37:16;;;;;;;35.95;7.25;;;11.10;99.90;;;;;;5034895;28;20442;-59
2024/01/24 05:39:43;;;;;;;40.13;7.60;;;11.10;99.90;;;;;;5034621;28;20048;-60
2024/01/24 05:42:10;;;;;;;35.10;7.32;;;11.00;99.90;;;;;;5034615;28;20049;-60
2024/01/24 05:44:37;;;;;;;34.10;8.00;;;11.00;99.90;;;;;;5034725;28;20496;-60
2024/01/24 05:47:03;;;;;;;44.08;9.35;;;11.00;99.90;;;;;;5034666;28;20033;-60
2024/01/24 05:49:30;;;;;;;38.47;7.30;;;11.00;99.90;;;;;;5034734;28;20522;-66
2024/01/24 05:51:57;;;;;;;35.22;7.35;;;11.00;99.90;;;;;;5034135;28;20371;-66
2024/01/24 05:54:24;;;;;;;36.70;8.00;;;10.90;99.90;;;;;;5034233;28;20042;-66
2024/01/24 05:56:51;;;;;;;31.15;7.47;;;10.90;99.90;;;;;;5033101;28;20072;-66
2024/01/24 05:59:18;;;;;;;38.15;7.88;;;10.90;99.90;;;;;;5034482;28;20029;-67
2024/01/24 06:01:44;;;;;;;35.65;8.02;;;10.90;99.90;;;;;;5034223;28;20047;-66
2024/01/24 06:04:11;;;;;;;35.63;7.72;;;10.80;99.90;;;;;;5034627;28;20084;-65
2024/01/24 06:06:38;;;;;;;34.53;7.20;;;10.80;99.90;;;;;;5034519;28;20045;-66
2024/01/24 06:09:05;;;;;;;34.20;8.65;;;10.80;99.90;;;;;;5034248;28;20076;-66
2024/01/24 06:11:32;;;;;;;36.70;7.90;;;10.80;99.90;;;;;;5034264;28;20112;-66
2024/01/24 06:13:59;;;;;;;40.22;7.80;;;10.70;99.90;;;;;;5033891;28;20049;-59
2024/01/24 06:16:26;;;;;;;39.20;7.78;;;10.70;99.90;;;;;;5033997;28;20446;-60
2024/01/24 06:18:52;;;;;;;39.05;7.90;;;10.70;99.90;;;;;;5034225;28;20056;-59
2024/01/24 06:21:20;;;;;;;35.33;7.70;;;10.70;99.90;;;;;;5033745;28;20045;-59
2024/01/24 06:23:47;;;;;;;35.42;7.43;;;10.70;99.90;;;;;;5033819;28;20056;-59
2024/01/24 06:26:13;;;;;;;35.95;7.78;;;10.60;99.90;;;;;;5033830;28;20041;-59
2024/01/24 06:28:40;;;;;;;41.58;7.65;;;10.70;99.90;;;;;;5033808;28;20041;-59
2024/01/24 06:31:07;;;;;;;36.85;8.25;;;10.60;99.90;;;;;;5034046;28;20038;-59
2024/01/24 06:33:34;;;;;;;32.58;7.45;;;10.60;99.90;;;;;;5032684;28;20042;-59
2024/01/24 06:36:01;;;;;;;38.00;7.70;;;10.60;99.90;;;;;;5033687;28;20065;-59
2024/01/24 06:38:27;;;;;;;43.08;8.70;;;10.60;99.90;;;;;;5033696;28;20512;-59
2024/01/24 06:40:54;;;;;;;35.95;7.60;;;10.60;99.90;;;;;;5033779;28;20056;-66
2024/01/24 06:43:21;;;;;;;41.42;9.23;;;10.50;99.90;;;;;;5033968;28;20415;-65
2024/01/24 06:45:48;;;;;;;39.38;7.47;;;10.50;99.90;;;;;;5034045;28;20049;-65
2024/01/24 06:48:15;;;;;;;38.90;7.90;;;10.50;99.90;;;;;;5033553;28;20044;-65
2024/01/24 06:50:42;;;;;;;38.08;7.15;;;10.50;99.90;;;;;;5033852;28;20402;-65
2024/01/24 06:53:13;;;;;;;42.10;7.95;;;10.50;99.90;;;;;;5033733;28;20038;-65
2024/01/24 06:55:40;;;;;;;35.10;7.57;;;10.50;99.90;;;;;;5033680;28;20044;-64
2024/01/24 06:58:07;;;;;;;41.30;8.75;;;10.40;99.90;;;;;;5032454;28;20037;-65
2024/01/24 07:00:34;;;;;;;37.63;8.00;;;10.50;99.90;;;;;;5033637;28;20534;-58
2024/01/24 07:03:01;;;;;;;40.70;8.10;;;10.50;99.90;;;;;;5033382;28;20076;-65
2024/01/24 07:05:28;;;;;;;36.38;7.60;;;10.50;99.90;;;;;;5033425;28;20045;-66
2024/01/24 07:07:56;;;;;;;44.20;8.07;;;10.40;99.90;;;;;;5033711;28;20167;-65
2024/01/24 07:10:23;;;;;;;43.63;8.35;;;10.40;99.90;;;;;;5033627;28;20042;-66
2024/01/24 07:12:49;;;;;;;40.22;7.95;;;10.40;99.90;;;;;;5033083;28;20471;-65
2024/01/24 07:15:17;;;;;;;48.28;10.45;;;10.40;99.90;;;;;;5033334;28;20617;-65
2024/01/24 07:17:43;;;;;;;43.00;9.05;;;10.40;99.90;;;;;;5033148;28;20048;-65
2024/01/24 07:20:11;;;;;;;40.38;7.53;;;10.40;99.90;;;;;;5033591;28;20072;-59
2024/01/24 07:22:38;;;;;;;41.25;9.27;;;10.40;99.90;;;;;;5033316;28;20475;-58
2024/01/24 07:25:06;;;;;;;37.88;7.65;;;10.40;99.90;;;;;;5033250;28;20068;-65
2024/01/24 07:27:33;;;;;;;36.60;7.78;;;10.30;99.90;;;;;;5033020;28;20117;-64
2024/01/24 07:30:04;;;;;;;42.55;8.38;;;10.30;99.90;;;;;;5032818;28;20041;-64
2024/01/24 07:32:35;;;;;;;35.60;7.20;;;10.30;99.90;;;;;;5033229;28;20029;-65
2024/01/24 07:35:02;;;;;;;37.45;7.63;;;10.30;99.90;;;;;;5032863;28;20128;-64
2024/01/24 07:37:30;;;;;;;47.83;8.93;;;10.20;99.90;;;;;;5032949;28;20553;-64
2024/01/24 07:39:56;;;;;;;46.45;8.40;;;10.20;99.90;;;;;;5033200;28;20463;-65
2024/01/24 07:42:23;;;;;;;42.67;7.90;;;10.20;99.90;;;;;;5031471;28;20477;-64
2024/01/24 07:44:50;;;;;;;42.22;8.70;;;10.20;99.90;;;;;;5033105;28;20073;-58
2024/01/24 07:47:17;;;;;;;44.80;8.75;;;10.10;99.90;;;;;;5031450;28;20091;-58
2024/01/24 07:49:44;;;;;;;34.30;8.13;;;10.10;99.90;;;;;;5033121;28;20048;-57
2024/01/24 07:52:11;;;;;;;44.05;8.70;;;10.10;99.90;;;;;;5033038;28;20127;-58
2024/01/24 07:54:42;;;;;;;40.75;8.43;;;10.10;99.90;;;;;;5032796;28;20111;-58
2024/01/24 07:57:09;;;;;;;37.45;8.20;;;10.10;99.90;;;;;;5032435;28;20048;-57
2024/01/24 07:59:36;;;;;;;49.10;9.35;;;10.10;99.90;;;;;;5033111;28;20129;-58
2024/01/24 08:02:03;;;;;;;42.03;8.07;;;10.10;99.90;;;;;;5033271;28;20053;-58
2024/01/24 08:04:31;;;;;;;41.08;8.02;;;10.00;99.90;;;;;;5032592;28;20045;-58
2024/01/24 08:06:59;;;;;;;42.17;8.30;;;10.00;99.90;;;;;;5032829;28;20479;-58
2024/01/24 08:09:25;;;;;;;42.05;7.95;;;10.00;99.90;;;;;;5033140;28;20053;-57
2024/01/24 08:11:53;;;;;;;44.22;7.80;;;10.00;99.90;;;;;;5032815;28;20083;-58
2024/01/24 08:14:20;;;;;;;39.78;7.75;;;9.90;99.90;;;;;;5032623;28;20115;-56
2024/01/24 08:16:47;;;;;;;36.92;7.60;;;9.90;99.90;;;;;;5035022;28;20045;-58
2024/01/24 08:19:13;;;;;;;36.25;7.18;;;9.90;99.90;;;;;;5036409;28;20048;-58
2024/01/24 08:21:40;;;;;;;39.75;7.13;;;9.90;99.90;;;;;;5036435;28;20446;-58
2024/01/24 08:24:07;;;;;;;37.40;8.00;;;9.90;99.90;;;;;;5036289;28;20125;-66
2024/01/24 08:26:34;;;;;;;38.47;8.40;;;9.90;99.90;;;;;;5036426;28;20048;-66
2024/01/24 08:29:01;;;;;;;35.35;7.88;;;10.00;99.90;;;;;;5036156;28;20455;-66
2024/01/24 08:31:28;;;;;;;44.00;8.98;;;9.90;99.90;;;;;;5036190;28;20116;-65
2024/01/24 08:33:55;;;;;;;36.03;7.50;;;9.90;99.90;;;;;;5035672;28;20045;-66
2024/01/24 08:36:22;;;;;;;35.75;8.60;;;9.90;99.90;;;;;;5036167;28;20471;-64
2024/01/24 08:38:49;;;;;;;41.95;8.55;;;10.00;99.90;;;;;;5035956;28;20092;-64
2024/01/24 08:41:15;;;;;;;40.38;7.50;;;10.00;99.90;;;;;;5035889;28;20325;-65
2024/01/24 08:43:42;;;;;;;44.55;9.38;;;9.90;99.90;;;;;;5035675;28;20045;-65
2024/01/24 08:46:09;;;;;;;41.55;8.60;;;9.90;99.90;;;;;;5035638;28;20045;-65
2024/01/24 08:48:36;;;;;;;43.45;9.15;;;10.00;99.90;;;;;;5034420;28;20038;-66
2024/01/24 08:51:03;;;;;;;41.00;7.78;;;10.00;99.90;;;;;;5035722;28;20065;-65
2024/01/24 08:53:29;;;;;;;42.95;9.57;;;10.00;99.90;;;;;;5035699;28;20041;-65
2024/01/24 08:55:57;;;;;;;43.55;8.15;;;10.00;99.90;;;;;;5035994;28;20033;-65
2024/01/24 08:58:23;;;;;;;39.58;7.45;;;10.00;99.90;;;;;;5035611;28;20388;-65
2024/01/24 09:00:51;;;;;;;40.13;7.25;;;10.00;99.90;;;;;;5035562;28;20121;-65
2024/01/24 09:03:19;;;;;;;43.45;7.45;;;10.00;99.90;;;;;;5035951;28;20388;-65
2024/01/24 09:05:46;;;;;;;40.60;8.10;;;10.00;99.90;;;;;;5035329;28;20038;-65
2024/01/24 09:08:13;;;;;;;32.67;7.47;;;10.00;99.90;;;;;;5035698;28;20046;-65
2024/01/24 09:10:40;;;;;;;46.03;8.65;;;10.00;99.90;;;;;;5035042;28;20048;-65
2024/01/24 09:13:07;;;;;;;34.15;7.13;;;10.00;99.90;;;;;;5035176;28;20149;-65
2024/01/24 09:15:34;;;;;;;40.53;8.38;;;10.00;99.90;;;;;;5035260;28;20046;-65
2024/01/24 09:18:01;;;;;;;42.55;8.20;;;10.00;99.90;;;;;;5035658;28;20050;-65
2024/01/24 09:20:28;;;;;;;41.10;7.38;;;10.00;99.90;;;;;;5035339;28;20072;-59
2024/01/24 09:22:55;;;;;;;38.25;7.50;;;10.00;99.90;;;;;;5033838;28;20096;-59
2024/01/24 09:25:22;;;;;;;42.88;7.93;;;10.10;99.90;;;;;;5035246;28;20084;-59
2024/01/24 09:27:49;;;;;;;35.92;7.72;;;10.10;99.90;;;;;;5033039;28;20059;-59
2024/01/24 09:30:16;;;;;;;39.08;7.90;;;10.10;99.90;;;;;;5035254;28;20093;-59
2024/01/24 09:32:43;;;;;;;46.72;8.93;;;10.10;99.90;;;;;;5035189;28;20107;-59
2024/01/24 09:35:10;;;;;;;39.80;8.20;;;10.10;99.90;;;;;;5035073;28;20060;-59
2024/01/24 09:37:37;;;;;;;33.78;8.52;;;10.10;99.90;;;;;;5035052;28;20046;-58
2024/01/24 09:40:04;;;;;;;32.47;7.32;;;10.10;99.90;;;;;;5034720;28;20041;-58
2024/01/24 09:42:31;;;;;;;41.88;7.78;;;10.10;99.90;;;;;;5034943;28;20055;-58
2024/01/24 09:44:58;;;;;;;40.38;8.27;;;10.10;99.90;;;;;;5035144;28;20045;-59
2024/01/24 09:47:25;;;;;;;39.05;8.27;;;10.10;99.90;;;;;;5034789;28;20045;-59
2024/01/24 09:49:52;;;;;;;41.53;8.52;;;10.10;99.90;;;;;;5034515;28;20033;-58
2024/01/24 09:52:23;;;;;;;35.30;6.93;;;10.20;99.90;;;;;;5034356;28;20033;-58
2024/01/24 09:54:50;;;;;;;35.10;8.48;;;10.20;99.90;;;;;;5034521;28;20375;-58
2024/01/24 09:57:17;;;;;;;37.80;7.45;;;10.20;99.90;;;;;;5034970;28;20065;-58
2024/01/24 09:59:44;;;;;;;43.40;8.40;;;10.20;99.90;;;;;;5034231;28;20041;-58
2024/01/24 10:02:11;;;;;;;36.25;7.65;;;10.30;99.90;;;;;;5034227;28;20041;-58
2024/01/24 10:04:39;;;;;;;30.40;6.70;;;10.30;99.90;;;;;;5016289;28;20424;-58
2024/01/24 10:07:05;;;;;;;34.00;7.22;;;10.30;99.90;;;;;;5052725;28;20047;-58
2024/01/24 10:09:32;;;;;;;39.25;9.45;;;10.40;99.90;;;;;;5053419;28;20033;-65
2024/01/24 10:11:59;;;;;;;38.70;7.63;;;10.40;99.90;;;;;;5053338;28;20592;-66
2024/01/24 10:14:27;;;;;;;38.65;7.45;;;10.40;99.90;;;;;;5051856;28;20056;-64
2024/01/24 10:16:55;;;;;;;35.47;7.72;;;10.40;99.90;;;;;;5052844;28;20049;-65
2024/01/24 10:19:21;;;;;;;32.42;7.25;;;10.50;99.90;;;;;;5053547;28;20041;-64
2024/01/24 10:21:48;;;;;;;34.95;8.77;;;10.50;99.90;;;;;;5053360;28;20535;-64
2024/01/24 10:24:15;;;;;;;41.03;8.75;;;10.60;99.90;;;;;;5051999;28;20049;-65
2024/01/24 10:26:46;;;;;;;40.63;8.15;;;10.60;99.90;;;;;;5052984;28;20055;-64
2024/01/24 10:29:13;;;;;;;33.83;8.27;;;10.60;99.90;;;;;;5053393;28;20101;-65
2024/01/24 10:31:40;;;;;;;36.95;8.02;;;10.60;99.90;;;;;;5053383;28;20456;-64
2024/01/24 10:34:06;;;;;;;37.72;7.65;;;10.60;99.90;;;;;;5053329;28;20060;-63
2024/01/24 10:36:38;;;;;;;44.50;8.32;;;10.70;99.90;;;;;;5052701;28;20572;-64
2024/01/24 10:39:09;;;;;;;43.75;7.55;;;10.70;99.90;;;;;;5052931;28;20123;-63
2024/01/24 10:41:39;;;;;;;35.22;8.27;;;10.70;99.90;;;;;;5053131;28;20409;-62
2024/01/24 10:44:09;;;;;;;31.95;6.72;;;10.70;99.90;;;;;;5053032;28;20048;-63
2024/01/24 10:46:37;;;;;;;36.47;7.35;;;10.80;99.90;;;;;;5052609;28;20065;-63
2024/01/24 10:49:05;;;;;;;38.28;7.65;;;10.80;99.90;;;;;;5053224;28;20071;-63
2024/01/24 10:51:33;;;;;;;37.17;7.07;;;10.80;99.90;;;;;;5052869;28;20064;-63
2024/01/24 10:54:00;;;;;;;39.50;7.93;;;10.80;99.90;;;;;;5053122;28;20039;-63
2024/01/24 10:56:28;;;;;;;42.05;8.45;;;10.90;99.90;;;;;;5053805;28;20065;-63
2024/01/24 10:58:54;;;;;;;36.83;7.57;;;10.90;99.90;;;;;;5039849;28;20478;-65
2024/01/24 11:01:21;;;;;;;31.35;7.70;;;10.90;99.90;;;;;;5032709;28;20060;-64
2024/01/24 11:03:48;;;;;;;38.17;8.05;;;10.90;99.90;;;;;;5042428;28;20037;-65
2024/01/24 11:06:15;;;;;;;38.50;7.55;;;10.90;99.90;;;;;;5053147;28;20131;-65
2024/01/24 11:08:44;;;;;;;45.33;7.85;;;11.00;99.90;;;;;;5052541;28;20585;-64
2024/01/24 11:11:16;;;;;;;31.52;7.50;;;11.00;99.90;;;;;;5052215;28;20041;-64
2024/01/24 11:13:44;;;;;;;35.50;7.30;;;11.00;99.90;;;;;;5052038;28;20041;-64
2024/01/24 11:16:11;;;;;;;31.05;6.78;;;11.00;99.90;;;;;;5052918;28;20041;-64
2024/01/24 11:18:38;;;;;;;39.00;7.40;;;11.10;99.90;;;;;;5052687;28;20045;-64
2024/01/24 11:21:06;;;;;;;42.75;9.00;;;11.10;99.90;;;;;;5053095;28;20045;-64
2024/01/24 11:23:34;;;;;;;44.45;8.45;;;11.20;99.90;;;;;;5052034;28;20120;-64
2024/01/24 11:26:01;;;;;;;32.55;7.45;;;11.20;99.90;;;;;;5052822;28;20057;-64
2024/01/24 11:28:28;;;;;;;36.42;7.35;;;11.30;99.90;;;;;;5052534;28;20041;-64
2024/01/24 11:30:55;;;;;;;31.20;7.18;;;11.30;99.90;;;;;;5052782;28;20087;-64
2024/01/24 11:33:23;;;;;;;35.92;7.13;;;11.30;99.90;;;;;;5052094;28;20478;-64
2024/01/24 11:35:51;;;;;;;32.28;6.57;;;11.30;99.90;;;;;;5051596;28;20083;-64
2024/01/24 11:38:27;;;;;;;28.83;6.85;;;11.30;99.90;;;;;;5052280;28;20037;-64
2024/01/24 11:40:57;;;;;;;32.22;6.60;;;11.30;99.90;;;;;;5052592;28;20128;-65
2024/01/24 11:43:23;;;;;;;39.25;7.93;;;11.40;99.90;;;;;;5051963;28;20045;-64
2024/01/24 11:45:50;;;;;;;29.20;7.00;;;11.40;99.90;;;;;;5052786;28;20498;-64
2024/01/24 11:48:17;;;;;;;36.63;6.25;;;11.40;99.90;;;;;;5052273;28;20049;-64
2024/01/24 11:50:46;;;;;;;34.42;7.30;;;11.40;99.90;;;;;;5052654;28;20037;-64
2024/01/24 11:53:12;;;;;;;33.53;7.03;;;11.40;99.90;;;;;;5037200;28;20059;-59
2024/01/24 11:55:39;;;;;;;28.48;6.82;;;11.50;99.90;;;;;;5036126;28;20046;-59
2024/01/24 11:58:06;;;;;;;35.10;6.95;;;11.40;99.90;;;;;;5036306;28;20064;-59
2024/01/24 12:00:33;;;;;;;32.35;6.28;;;11.50;99.90;;;;;;5036182;28;20340;-59
2024/01/24 12:03:00;;;;;;;27.30;5.97;;;11.50;99.90;;;;;;5036571;28;20379;-59
2024/01/24 12:05:27;;;;;;;28.10;5.75;;;11.50;99.90;;;;;;5036431;28;20046;-59
2024/01/24 12:07:54;;;;;;;29.75;6.15;;;11.50;99.90;;;;;;5036633;28;20471;-59
2024/01/24 12:10:21;;;;;;;31.45;6.88;;;11.50;99.90;;;;;;5035599;28;20049;-59
2024/01/24 12:12:48;;;;;;;29.17;6.05;;;11.50;99.90;;;;;;5035528;28;20037;-58
2024/01/24 12:15:15;;;;;;;27.60;5.95;;;11.50;99.90;;;;;;5036318;28;20041;-58
2024/01/24 12:17:41;;;;;;;29.13;5.72;;;11.40;99.90;;;;;;5035967;28;20034;-59
2024/01/24 12:20:08;;;;;;;27.98;6.40;;;11.40;99.90;;;;;;5036469;28;20100;-58
2024/01/24 12:22:36;;;;;;;28.10;6.38;;;11.40;99.90;;;;;;5036493;28;20045;-58
2024/01/24 12:25:03;;;;;;;31.08;5.60;;;11.40;99.90;;;;;;5035866;28;20511;-58
2024/01/24 12:27:33;;;;;;;29.70;6.15;;;11.30;99.90;;;;;;5036454;28;20053;-58
2024/01/24 12:30:00;;;;;;;28.00;6.18;;;11.30;99.90;;;;;;5036116;28;20037;-58
2024/01/24 12:32:27;;;;;;;27.05;6.22;;;11.30;99.90;;;;;;5036137;28;20602;-58
2024/01/24 12:34:54;;;;;;;29.60;5.85;;;11.40;99.90;;;;;;5036185;28;20033;-58
2024/01/24 12:37:22;;;;;;;22.33;5.43;;;11.40;99.90;;;;;;5036355;28;20451;-57